createdAt,value
2024-03-05T00:01:04.000Z,4.00
2024-03-05T00:03:31.292Z,3.90
2024-03-05T00:05:58.593Z,3.90
2024-03-05T00:08:26.255Z,4.00
2024-03-05T00:10:55.302Z,4.00
2024-03-05T00:13:22.707Z,3.90
2024-03-05T00:15:51.507Z,3.90
2024-03-05T00:18:19.395Z,3.90
2024-03-05T00:20:47.419Z,3.90
2024-03-05T00:23:14.793Z,3.90
2024-03-05T00:25:42.111Z,3.90
2024-03-05T00:28:09.873Z,3.90
2024-03-05T00:30:37.205Z,3.90
2024-03-05T00:33:07.430Z,3.90
2024-03-05T00:35:35.339Z,3.90
2024-03-05T00:38:02.963Z,3.90
2024-03-05T00:40:32.091Z,3.90
2024-03-05T00:42:59.352Z,3.90
2024-03-05T00:45:26.954Z,3.90
2024-03-05T00:47:54.621Z,3.90
2024-03-05T00:50:21.846Z,3.80
2024-03-05T00:52:49.421Z,3.80
2024-03-05T00:55:16.893Z,3.80
2024-03-05T00:57:44.291Z,3.80
2024-03-05T01:00:14.444Z,3.80
2024-03-05T01:02:43.642Z,3.80
2024-03-05T01:05:11.339Z,3.80
2024-03-05T01:07:39.704Z,3.70
2024-03-05T01:10:07.637Z,3.70
2024-03-05T01:12:35.007Z,3.70
2024-03-05T01:15:02.887Z,3.70
2024-03-05T01:17:30.326Z,3.70
2024-03-05T01:19:58.254Z,3.70
2024-03-05T01:22:26.229Z,3.70
2024-03-05T01:24:53.780Z,3.70
2024-03-05T01:27:21.385Z,3.70
2024-03-05T01:29:49.108Z,3.70
2024-03-05T01:32:16.332Z,3.60
2024-03-05T01:34:48.708Z,3.60
2024-03-05T01:37:16.046Z,3.60
2024-03-05T01:39:43.803Z,3.50
2024-03-05T01:42:11.086Z,3.50
2024-03-05T01:44:38.529Z,3.50
2024-03-05T01:47:08.553Z,3.40
2024-03-05T01:49:36.235Z,3.40
2024-03-05T01:52:04.639Z,3.40
2024-03-05T01:54:33.498Z,3.40
2024-03-05T01:57:04.656Z,3.30
2024-03-05T01:59:32.116Z,3.30
2024-03-05T02:01:59.713Z,3.30
2024-03-05T02:04:27.481Z,3.30
2024-03-05T02:06:56.819Z,3.30
2024-03-05T02:09:24.413Z,3.20
2024-03-05T02:11:56.684Z,3.20
2024-03-05T02:14:30.816Z,3.20
2024-03-05T02:17:01.758Z,3.20
2024-03-05T02:19:30.157Z,3.20
2024-03-05T02:22:06.896Z,3.20
2024-03-05T02:24:34.280Z,3.20
2024-03-05T02:27:09.882Z,3.20
2024-03-05T02:29:39.889Z,3.20
2024-03-05T02:32:08.459Z,3.20
2024-03-05T02:34:35.779Z,3.20
2024-03-05T02:37:04.786Z,3.20
2024-03-05T02:39:31.998Z,3.20
2024-03-05T02:41:59.360Z,3.20
2024-03-05T02:44:27.775Z,3.20
2024-03-05T02:46:55.312Z,3.10
2024-03-05T02:49:22.941Z,3.20
2024-03-05T02:51:50.284Z,3.20
2024-03-05T02:54:17.737Z,3.20
2024-03-05T02:56:44.974Z,3.20
2024-03-05T02:59:12.174Z,3.10
2024-03-05T03:01:39.581Z,3.10
2024-03-05T03:04:06.780Z,3.10
2024-03-05T03:06:34.013Z,3.10
2024-03-05T03:09:01.257Z,3.10
2024-03-05T03:11:29.237Z,3.10
2024-03-05T03:13:56.758Z,3.10
2024-03-05T03:16:24.282Z,3.10
2024-03-05T03:18:52.097Z,3.10
2024-03-05T03:21:19.275Z,3.10
2024-03-05T03:23:46.577Z,3.10
2024-03-05T03:26:14.175Z,3.10
2024-03-05T03:28:41.474Z,3.10
2024-03-05T03:31:12.185Z,3.10
2024-03-05T03:33:40.519Z,3.10
2024-03-05T03:36:08.557Z,3.60
2024-03-05T03:38:36.398Z,3.10
2024-03-05T03:41:06.706Z,3.10
2024-03-05T03:43:34.440Z,3.10
2024-03-05T03:46:01.691Z,3.10
2024-03-05T03:48:28.947Z,3.10
2024-03-05T03:50:56.146Z,3.10
2024-03-05T03:53:23.484Z,3.10
2024-03-05T03:55:50.708Z,3.10
2024-03-05T03:58:18.499Z,3.10
2024-03-05T04:00:47.315Z,3.10
2024-03-05T04:03:14.621Z,3.10
2024-03-05T04:05:45.806Z,3.00
2024-03-05T04:08:13.111Z,3.00
2024-03-05T04:10:40.400Z,3.00
2024-03-05T04:13:07.680Z,3.00
2024-03-05T04:15:34.885Z,3.00
2024-03-05T04:18:02.172Z,3.00
2024-03-05T04:20:29.472Z,3.00
2024-03-05T04:22:56.788Z,3.00
2024-03-05T04:25:29.896Z,3.00
2024-03-05T04:28:00.270Z,3.00
2024-03-05T04:30:28.022Z,3.00
2024-03-05T04:33:05.000Z,3.00
2024-03-05T04:35:33.030Z,3.00
2024-03-05T04:38:00.415Z,3.00
2024-03-05T04:40:28.287Z,3.00
2024-03-05T04:42:56.184Z,2.90
2024-03-05T04:45:23.402Z,3.00
2024-03-05T04:47:51.154Z,3.00
2024-03-05T04:50:19.135Z,2.90
2024-03-05T04:52:46.810Z,3.00
2024-03-05T04:55:14.635Z,2.90
2024-03-05T04:57:41.965Z,2.90
2024-03-05T05:00:21.009Z,2.90
2024-03-05T05:02:52.275Z,2.90
2024-03-05T05:05:21.086Z,3.00
2024-03-05T05:07:48.816Z,3.00
2024-03-05T05:10:16.523Z,3.00
2024-03-05T05:12:46.152Z,3.00
2024-03-05T05:15:13.989Z,3.10
2024-03-05T05:17:41.827Z,3.00
2024-03-05T05:20:10.405Z,3.10
2024-03-05T05:22:39.060Z,3.10
2024-03-05T05:25:07.725Z,3.10
2024-03-05T05:27:38.487Z,3.10
2024-03-05T05:30:09.582Z,3.10
2024-03-05T05:32:41.659Z,3.10
2024-03-05T05:35:10.273Z,3.10
2024-03-05T05:37:40.848Z,3.10
2024-03-05T05:40:12.392Z,3.20
2024-03-05T05:42:40.430Z,3.20
2024-03-05T05:45:12.177Z,3.20
2024-03-05T05:47:50.397Z,3.20
2024-03-05T05:50:19.422Z,3.20
2024-03-05T05:52:49.757Z,3.30
2024-03-05T05:55:21.691Z,3.30
2024-03-05T05:57:50.238Z,3.30
2024-03-05T06:00:33.031Z,3.30
2024-03-05T06:03:00.895Z,3.40
2024-03-05T06:05:33.203Z,3.40
2024-03-05T06:08:01.670Z,3.40
2024-03-05T06:10:30.948Z,3.40
2024-03-05T06:12:59.546Z,3.40
2024-03-05T06:15:28.988Z,3.50
2024-03-05T06:18:01.073Z,3.50
2024-03-05T06:20:28.951Z,3.50
2024-03-05T06:23:00.400Z,3.50
2024-03-05T06:25:31.623Z,3.50
2024-03-05T06:27:58.960Z,3.60
2024-03-05T06:30:27.052Z,3.60
2024-03-05T06:32:54.597Z,3.60
2024-03-05T06:35:25.886Z,3.70
2024-03-05T06:37:54.876Z,3.70
2024-03-05T06:40:24.241Z,3.70
2024-03-05T06:43:05.665Z,3.70
2024-03-05T06:45:37.043Z,3.70
2024-03-05T06:48:16.443Z,3.70
2024-03-05T06:50:48.523Z,3.80
2024-03-05T06:53:34.182Z,3.80
2024-03-05T06:56:21.147Z,3.80
2024-03-05T06:58:49.604Z,3.80
2024-03-05T07:01:21.868Z,3.90
2024-03-05T07:03:50.102Z,3.90
2024-03-05T07:06:20.407Z,3.90
2024-03-05T07:08:49.927Z,4.00
2024-03-05T07:11:17.956Z,4.00
2024-03-05T07:13:50.968Z,4.10
2024-03-05T07:16:20.468Z,4.10
2024-03-05T07:18:51.655Z,4.10
2024-03-05T07:21:21.931Z,4.20
2024-03-05T07:23:51.989Z,4.20
2024-03-05T07:26:20.058Z,4.30
2024-03-05T07:28:47.874Z,4.40
2024-03-05T07:31:16.805Z,4.50
2024-03-05T07:33:46.430Z,4.50
2024-03-05T07:36:15.828Z,4.60
2024-03-05T07:38:43.517Z,4.70
2024-03-05T07:41:18.058Z,4.80
2024-03-05T07:43:53.987Z,4.80
2024-03-05T07:46:21.992Z,4.80
2024-03-05T07:48:49.392Z,4.80
2024-03-05T07:51:21.846Z,4.90
2024-03-05T07:53:52.857Z,5.00
2024-03-05T07:56:20.084Z,5.00
2024-03-05T07:58:47.472Z,5.00
2024-03-05T08:01:15.329Z,5.00
2024-03-05T08:03:42.854Z,5.20
2024-03-05T08:06:10.550Z,5.20
2024-03-05T08:08:37.807Z,5.30
2024-03-05T08:11:05.255Z,5.30
2024-03-05T08:13:35.999Z,5.30
2024-03-05T08:16:06.327Z,5.20
2024-03-05T08:18:33.765Z,5.20
2024-03-05T08:21:02.782Z,5.20
2024-03-05T08:23:30.757Z,5.30
2024-03-05T08:25:58.106Z,5.40
2024-03-05T08:28:26.134Z,5.50
2024-03-05T08:30:54.929Z,5.60
2024-03-05T08:33:24.896Z,5.70
2024-03-05T08:35:52.897Z,5.90
2024-03-05T08:38:20.294Z,5.90
2024-03-05T08:40:50.074Z,5.90
2024-03-05T08:43:17.727Z,5.70
2024-03-05T08:45:45.200Z,5.60
2024-03-05T08:48:12.578Z,5.50
2024-03-05T08:50:40.714Z,5.60
2024-03-05T08:53:09.390Z,5.60
2024-03-05T08:55:37.039Z,5.80
2024-03-05T08:58:05.425Z,5.70
2024-03-05T09:00:42.064Z,5.60
2024-03-05T09:03:15.465Z,5.50
2024-03-05T09:05:45.535Z,5.50
2024-03-05T09:08:15.353Z,5.50
2024-03-05T09:10:44.310Z,5.70
2024-03-05T09:13:12.709Z,5.90
2024-03-05T09:15:43.589Z,5.80
2024-03-05T09:18:14.244Z,5.80
2024-03-05T09:20:43.715Z,5.90
2024-03-05T09:23:11.352Z,5.90
2024-03-05T09:25:42.593Z,5.90
2024-03-05T09:28:10.631Z,6.00
2024-03-05T09:30:38.749Z,5.90
2024-03-05T09:33:10.910Z,5.80
2024-03-05T09:35:38.765Z,5.90
2024-03-05T09:38:06.263Z,5.90
2024-03-05T09:40:34.852Z,5.90
2024-03-05T09:43:05.339Z,6.00
2024-03-05T09:45:38.595Z,6.00
2024-03-05T09:48:08.463Z,6.00
2024-03-05T09:50:38.279Z,6.00
2024-03-05T09:53:06.172Z,6.00
2024-03-05T09:55:34.308Z,6.00
2024-03-05T09:58:10.502Z,6.10
2024-03-05T10:00:38.930Z,5.90
2024-03-05T10:03:11.489Z,5.70
2024-03-05T10:05:41.419Z,5.60
2024-03-05T10:08:12.537Z,5.50
2024-03-05T10:10:40.093Z,5.50
2024-03-05T10:13:07.796Z,5.70
2024-03-05T10:15:38.357Z,5.70
2024-03-05T10:18:08.205Z,5.80
2024-03-05T10:20:38.745Z,5.80
2024-03-05T10:23:11.998Z,5.90
2024-03-05T10:25:41.234Z,5.90
2024-03-05T10:28:11.490Z,5.80
2024-03-05T10:30:43.662Z,5.70
2024-03-05T10:33:13.950Z,5.70
2024-03-05T10:35:43.010Z,5.70
2024-03-05T10:38:17.775Z,6.60
2024-03-05T10:40:47.548Z,5.70
2024-03-05T10:43:20.276Z,5.80
2024-03-05T10:45:48.709Z,5.70
2024-03-05T10:48:19.598Z,5.80
2024-03-05T10:50:50.064Z,6.00
2024-03-05T10:53:17.965Z,6.30
2024-03-05T10:55:48.939Z,6.60
2024-03-05T10:58:18.949Z,6.80
2024-03-05T11:00:47.646Z,6.90
2024-03-05T11:03:17.873Z,6.80
2024-03-05T11:05:54.298Z,6.70
2024-03-05T11:08:26.759Z,6.60
2024-03-05T11:11:07.182Z,6.40
2024-03-05T11:13:37.260Z,6.40
2024-03-05T11:16:05.467Z,6.30
2024-03-05T11:18:35.581Z,6.30
2024-03-05T11:21:13.424Z,6.20
2024-03-05T11:23:53.265Z,6.30
2024-03-05T11:26:24.213Z,6.30
2024-03-05T11:29:06.120Z,6.40
2024-03-05T11:31:34.264Z,6.40
2024-03-05T11:34:12.207Z,6.40
2024-03-05T11:36:40.224Z,6.30
2024-03-05T11:39:21.603Z,6.20
2024-03-05T11:41:49.361Z,6.20
2024-03-05T11:44:42.795Z,6.10
2024-03-05T11:47:10.574Z,6.10
2024-03-05T11:49:39.141Z,6.10
2024-03-05T11:52:07.187Z,6.10
2024-03-05T11:54:36.889Z,6.00
2024-03-05T11:57:04.966Z,6.00
2024-03-05T11:59:40.404Z,5.90
2024-03-05T12:02:12.577Z,5.90
2024-03-05T12:04:40.677Z,5.90
2024-03-05T12:07:08.630Z,6.00
2024-03-05T12:09:39.346Z,6.10
2024-03-05T12:12:13.685Z,6.20
2024-03-05T12:15:08.546Z,6.30
2024-03-05T12:17:36.657Z,6.00
2024-03-05T12:20:11.052Z,5.90
2024-03-05T12:22:57.764Z,6.00
2024-03-05T12:25:28.968Z,6.20
2024-03-05T12:27:56.832Z,6.20
2024-03-05T12:30:26.449Z,6.30
2024-03-05T12:32:55.941Z,6.20
2024-03-05T12:35:23.384Z,6.10
2024-03-05T12:37:53.332Z,6.00
2024-03-05T12:40:22.312Z,5.80
2024-03-05T12:42:51.617Z,5.80
2024-03-05T12:45:20.160Z,5.80
2024-03-05T12:48:03.349Z,5.60
2024-03-05T12:50:33.243Z,5.60
2024-03-05T12:53:04.744Z,5.70
2024-03-05T12:55:33.916Z,5.80
2024-03-05T12:58:10.100Z,5.80
2024-03-05T13:00:39.750Z,5.70
2024-03-05T13:03:09.074Z,5.70
2024-03-05T13:05:40.544Z,5.60
2024-03-05T13:08:08.606Z,5.60
2024-03-05T13:11:13.222Z,5.50
2024-03-05T13:13:41.528Z,5.40
2024-03-05T13:16:08.966Z,5.40
2024-03-05T13:18:36.746Z,5.50
2024-03-05T13:21:07.245Z,5.50
2024-03-05T13:23:36.083Z,5.50
2024-03-05T13:26:03.692Z,5.60
2024-03-05T13:28:30.997Z,5.60
2024-03-05T13:30:58.186Z,5.70
2024-03-05T13:33:26.756Z,5.80
2024-03-05T13:35:54.051Z,5.80
2024-03-05T13:38:24.134Z,5.80
2024-03-05T13:40:53.626Z,5.80
2024-03-05T13:43:23.526Z,5.70
2024-03-05T13:45:52.454Z,5.70
2024-03-05T13:48:20.550Z,5.70
2024-03-05T13:50:53.783Z,5.70
2024-03-05T13:53:25.089Z,5.60
2024-03-05T13:55:56.515Z,5.60
2024-03-05T13:58:24.053Z,5.60
2024-03-05T14:00:51.377Z,5.50
2024-03-05T14:03:18.595Z,5.50
2024-03-05T14:05:45.894Z,5.40
2024-03-05T14:08:13.397Z,5.40
2024-03-05T14:10:41.873Z,5.30
2024-03-05T14:13:14.909Z,5.30
2024-03-05T14:15:42.467Z,5.40
2024-03-05T14:18:10.532Z,5.30
2024-03-05T14:20:40.163Z,5.20
2024-03-05T14:23:08.237Z,5.20
2024-03-05T14:25:35.610Z,5.20
2024-03-05T14:28:03.229Z,5.20
2024-03-05T14:30:32.442Z,5.20
2024-03-05T14:33:00.933Z,5.20
2024-03-05T14:35:28.233Z,5.20
2024-03-05T14:37:56.321Z,5.10
2024-03-05T14:40:23.625Z,5.10
2024-03-05T14:42:50.982Z,5.10
2024-03-05T14:45:19.100Z,5.10
2024-03-05T14:47:48.367Z,5.20
2024-03-05T14:50:22.660Z,5.20
2024-03-05T14:52:50.042Z,5.20
2024-03-05T14:55:17.310Z,5.30
2024-03-05T14:57:46.100Z,5.30
2024-03-05T15:00:15.182Z,5.30
2024-03-05T15:02:45.770Z,5.30
2024-03-05T15:05:13.744Z,5.20
2024-03-05T15:07:42.918Z,5.30
2024-03-05T15:10:16.034Z,5.20
2024-03-05T15:12:49.379Z,5.20
2024-03-05T15:15:18.937Z,5.10
2024-03-05T15:17:49.640Z,5.10
2024-03-05T15:20:18.802Z,5.10
2024-03-05T15:22:49.765Z,5.10
2024-03-05T15:25:24.069Z,5.00
2024-03-05T15:30:22.464Z,5.10
2024-03-05T15:32:52.042Z,5.10
2024-03-05T15:35:24.446Z,5.10
2024-03-05T15:37:52.873Z,5.20
2024-03-05T15:40:23.320Z,5.20
2024-03-05T15:42:58.470Z,5.20
2024-03-05T15:45:31.445Z,5.30
2024-03-05T15:48:01.907Z,5.20
2024-03-05T15:50:32.419Z,5.20
2024-03-05T15:53:01.858Z,5.10
2024-03-05T15:55:30.063Z,5.10
2024-03-05T15:58:02.025Z,5.10
2024-03-05T16:00:38.403Z,5.20
2024-03-05T16:03:10.684Z,5.20
2024-03-05T16:05:55.647Z,5.20
2024-03-05T16:08:33.496Z,5.20
2024-03-05T16:11:01.172Z,5.30
2024-03-05T16:13:32.260Z,5.30
2024-03-05T16:15:59.452Z,5.20
2024-03-05T16:18:27.753Z,5.20
2024-03-05T16:20:55.431Z,5.20
2024-03-05T16:23:22.806Z,5.10
2024-03-05T16:25:52.605Z,5.00
2024-03-05T16:28:21.599Z,5.00
2024-03-05T16:30:49.348Z,5.00
2024-03-05T16:33:16.740Z,5.00
2024-03-05T16:35:44.450Z,5.00
2024-03-05T16:38:15.275Z,5.00
2024-03-05T16:40:42.840Z,4.90
2024-03-05T16:43:11.266Z,4.90
2024-03-05T16:45:39.713Z,4.80
2024-03-05T16:48:10.832Z,4.80
2024-03-05T16:50:40.492Z,4.70
2024-03-05T16:53:10.771Z,4.70
2024-03-05T16:55:39.037Z,4.60
2024-03-05T16:58:12.217Z,5.30
2024-03-05T17:00:53.469Z,4.60
2024-03-05T17:03:22.875Z,4.80
2024-03-05T17:05:53.940Z,4.60
2024-03-05T17:08:24.460Z,4.60
2024-03-05T17:10:52.500Z,4.60
2024-03-05T17:13:22.748Z,4.60
2024-03-05T17:15:59.952Z,4.50
2024-03-05T17:18:28.795Z,4.50
2024-03-05T17:20:57.172Z,4.50
2024-03-05T17:23:26.887Z,4.50
2024-03-05T17:25:57.000Z,4.50
2024-03-05T17:28:27.786Z,4.50
2024-03-05T17:30:57.291Z,4.60
2024-03-05T17:33:25.304Z,4.60
2024-03-05T17:35:56.490Z,4.50
2024-03-05T17:38:26.371Z,4.50
2024-03-05T17:40:55.175Z,4.50
2024-03-05T17:43:22.706Z,4.50
2024-03-05T17:45:50.180Z,4.50
2024-03-05T17:48:17.510Z,4.50
2024-03-05T17:50:46.000Z,4.40
2024-03-05T17:53:14.226Z,4.50
2024-03-05T17:55:41.513Z,4.40
2024-03-05T17:58:09.521Z,4.40
2024-03-05T18:00:45.883Z,4.50
2024-03-05T18:03:22.175Z,4.50
2024-03-05T18:05:49.868Z,4.50
2024-03-05T18:08:17.753Z,4.40
2024-03-05T18:10:45.205Z,4.40
2024-03-05T18:13:15.322Z,4.50
2024-03-05T18:15:43.886Z,4.40
2024-03-05T18:18:15.311Z,4.50
2024-03-05T18:20:44.539Z,4.50
2024-03-05T18:23:12.304Z,4.50
2024-03-05T18:25:40.330Z,4.50
2024-03-05T18:28:10.598Z,4.50
2024-03-05T18:30:41.056Z,5.00
2024-03-05T18:33:09.734Z,4.50
2024-03-05T18:35:40.995Z,4.50
2024-03-05T18:38:20.820Z,4.50
2024-03-05T18:40:58.157Z,4.40
2024-03-05T18:43:29.714Z,4.40
2024-03-05T18:46:00.475Z,4.40
2024-03-05T18:48:28.679Z,4.40
2024-03-05T18:50:57.720Z,4.40
2024-03-05T18:53:32.671Z,4.40
2024-03-05T18:56:07.779Z,4.30
2024-03-05T18:58:35.383Z,4.30
2024-03-05T19:01:02.932Z,4.30
2024-03-05T19:03:30.464Z,4.30
2024-03-05T19:05:58.025Z,4.30
2024-03-05T19:08:25.700Z,4.20
2024-03-05T19:10:54.510Z,4.20
2024-03-05T19:13:22.091Z,4.20
2024-03-05T19:15:49.475Z,4.20
2024-03-05T19:18:17.522Z,4.20
2024-03-05T19:20:45.622Z,4.20
2024-03-05T19:23:13.836Z,4.20
2024-03-05T19:25:41.487Z,4.30
2024-03-05T19:28:08.708Z,4.20
2024-03-05T19:30:36.750Z,4.20
2024-03-05T19:33:04.486Z,4.20
2024-03-05T19:35:31.934Z,4.20
2024-03-05T19:37:59.427Z,4.20
2024-03-05T19:40:27.090Z,4.20
2024-03-05T19:42:54.996Z,4.20
2024-03-05T19:45:29.305Z,4.20
2024-03-05T19:47:58.905Z,4.20
2024-03-05T19:50:27.737Z,4.20
2024-03-05T19:52:57.317Z,4.30
2024-03-05T19:55:25.336Z,4.30
2024-03-05T19:57:53.310Z,4.40
2024-03-05T20:00:25.308Z,4.30
2024-03-05T20:02:54.667Z,4.60
2024-03-05T20:05:23.798Z,4.30
2024-03-05T20:07:53.102Z,4.30
2024-03-05T20:10:22.328Z,4.30
2024-03-05T20:12:50.289Z,4.30
2024-03-05T20:15:17.965Z,4.40
2024-03-05T20:17:45.388Z,4.40
2024-03-05T20:20:19.827Z,4.40
2024-03-05T20:22:49.253Z,4.50
2024-03-05T20:25:22.698Z,4.40
2024-03-05T20:27:52.914Z,4.40
2024-03-05T20:30:23.869Z,4.30
2024-03-05T20:32:52.054Z,4.20
2024-03-05T20:35:20.392Z,4.20
2024-03-05T20:37:50.344Z,4.20
2024-03-05T20:40:28.621Z,4.10
2024-03-05T20:42:56.148Z,4.20
2024-03-05T20:45:25.893Z,4.10
2024-03-05T20:47:53.593Z,4.10
2024-03-05T20:50:22.360Z,4.10
2024-03-05T20:52:50.382Z,4.20
2024-03-05T20:55:18.237Z,4.20
2024-03-05T20:57:48.075Z,4.20
2024-03-05T21:00:20.387Z,4.20
2024-03-05T21:02:51.015Z,4.20
2024-03-05T21:05:20.101Z,4.30
2024-03-05T21:07:48.012Z,4.20
2024-03-05T21:10:16.704Z,4.20
2024-03-05T21:12:44.631Z,4.20
2024-03-05T21:15:12.688Z,4.20
2024-03-05T21:17:42.164Z,4.20
2024-03-05T21:20:11.614Z,4.30
2024-03-05T21:22:41.898Z,4.20
2024-03-05T21:25:11.235Z,4.20
2024-03-05T21:27:42.033Z,4.30
2024-03-05T21:30:13.238Z,4.30
2024-03-05T21:32:43.598Z,4.20
2024-03-05T21:35:11.721Z,4.20
2024-03-05T21:37:40.163Z,4.30
2024-03-05T21:40:13.488Z,4.20
2024-03-05T21:42:44.806Z,4.20
2024-03-05T21:45:15.987Z,4.20
2024-03-05T21:47:47.627Z,4.20
2024-03-05T21:50:15.476Z,4.20
2024-03-05T21:52:47.366Z,4.20
2024-03-05T21:55:16.598Z,4.70
2024-03-05T21:57:44.057Z,4.20
2024-03-05T22:00:12.653Z,4.30
2024-03-05T22:02:42.858Z,4.30
2024-03-05T22:05:12.289Z,4.30
2024-03-05T22:07:40.130Z,4.30
2024-03-05T22:10:08.310Z,4.30
2024-03-05T22:12:39.629Z,4.30
2024-03-05T22:15:09.267Z,4.30
2024-03-05T22:17:37.300Z,4.30
2024-03-05T22:20:07.829Z,4.30
2024-03-05T22:22:36.379Z,4.20
2024-03-05T22:25:07.454Z,4.20
2024-03-05T22:27:35.226Z,4.30
2024-03-05T22:30:03.452Z,4.30
2024-03-05T22:32:31.028Z,4.30
2024-03-05T22:34:59.029Z,4.40
2024-03-05T22:37:26.932Z,4.40
2024-03-05T22:39:54.370Z,4.40
2024-03-05T22:42:21.675Z,4.40
2024-03-05T22:44:48.892Z,4.40
2024-03-05T22:47:16.341Z,4.40
2024-03-05T22:49:45.815Z,4.40
2024-03-05T22:52:14.269Z,4.50
2024-03-05T22:54:45.389Z,4.50
2024-03-05T22:57:13.773Z,4.50
2024-03-05T22:59:41.075Z,4.40
2024-03-05T23:02:08.452Z,4.40
2024-03-05T23:04:36.314Z,4.40
2024-03-05T23:07:03.591Z,4.40
2024-03-05T23:09:30.935Z,4.40
2024-03-05T23:11:58.285Z,4.30
2024-03-05T23:14:25.565Z,4.30
2024-03-05T23:16:52.873Z,4.30
2024-03-05T23:19:20.249Z,4.30
2024-03-05T23:21:47.507Z,4.30
2024-03-05T23:24:14.748Z,4.40
2024-03-05T23:26:42.190Z,4.40
2024-03-05T23:29:10.191Z,4.40
2024-03-05T23:31:37.864Z,4.40
2024-03-05T23:34:05.069Z,4.40
2024-03-05T23:36:32.747Z,4.40
2024-03-05T23:39:00.181Z,4.40
2024-03-05T23:41:36.575Z,4.40
2024-03-05T23:44:04.555Z,4.40
2024-03-05T23:46:31.931Z,4.40
2024-03-05T23:48:59.213Z,4.40
2024-03-05T23:51:26.597Z,4.40
2024-03-05T23:53:54.454Z,4.40
2024-03-05T23:56:21.706Z,4.30
2024-03-05T23:58:51.353Z,4.30
